Time;durP1;ratioP1;P1;durP2;ratioP2;P2;SDS_P1;SDS_P2;PMS_P1;PMS_P2;Temp;Humidity;BMP_temperature;BMP_pressure;BME280_temperature;BME280_humidity;BME280_pressure;Samples;Min_cycle;Max_cycle;Signal;HPM_P1;HPM_P2
2023/12/01 00:01:37;;;;;;;;;;;19.40;61.40;;;;;;5018179;28;1977;-68
2023/12/01 00:04:03;;;;;;;;;;;19.40;61.40;;;;;;5019983;28;1731;-68
2023/12/01 00:06:28;;;;;;;;;;;19.40;61.40;;;;;;5016801;28;1717;-68
2023/12/01 00:08:54;;;;;;;;;;;19.40;61.40;;;;;;5016562;28;1450;-68
2023/12/01 00:11:19;;;;;;;;;;;19.40;61.40;;;;;;5018321;28;1557;-68
2023/12/01 00:13:45;;;;;;;;;;;19.40;61.40;;;;;;5015164;28;1478;-68
2023/12/01 00:16:10;;;;;;;;;;;19.40;61.50;;;;;;5015813;28;1378;-68
2023/12/01 00:18:36;;;;;;;;;;;19.40;61.40;;;;;;5018247;28;1038;-68
2023/12/01 00:21:01;;;;;;;;;;;19.40;61.40;;;;;;5015332;28;1906;-68
2023/12/01 00:23:29;;;;;;;;;;;19.40;61.40;;;;;;5018386;28;1097;-68
2023/12/01 00:25:54;;;;;;;;;;;19.40;61.40;;;;;;5022111;28;1350;-69
2023/12/01 00:28:19;;;;;;;;;;;19.40;61.40;;;;;;5021345;28;1268;-68
2023/12/01 00:30:45;;;;;;;;;;;19.30;62.10;;;;;;5022421;28;1275;-68
2023/12/01 00:33:10;;;;;;;;;;;19.40;61.40;;;;;;5022323;28;1468;-68
2023/12/01 00:35:36;;;;;;;;;;;19.30;61.40;;;;;;5020867;28;1396;-68
2023/12/01 00:38:01;;;;;;;;;;;19.30;61.40;;;;;;5016873;28;1869;-68
2023/12/01 00:40:27;;;;;;;;;;;19.30;61.40;;;;;;5022317;28;1485;-68
2023/12/01 00:42:52;;;;;;;;;;;19.30;61.40;;;;;;5023036;28;1910;-68
2023/12/01 00:45:18;;;;;;;;;;;19.30;61.50;;;;;;5021111;28;1390;-68
2023/12/01 00:47:43;;;;;;;;;;;19.30;61.50;;;;;;5020200;28;1440;-68
2023/12/01 00:50:09;;;;;;;;;;;19.30;61.50;;;;;;5010286;28;1433;-68
2023/12/01 00:52:34;;;;;;;;;;;19.30;61.50;;;;;;5022371;28;1394;-68
2023/12/01 00:55:00;;;;;;;;;;;19.30;61.60;;;;;;5020052;28;1664;-68
2023/12/01 00:57:25;;;;;;;;;;;19.30;61.50;;;;;;5022565;28;1934;-68
2023/12/01 00:59:51;;;;;;;;;;;19.30;61.60;;;;;;5017038;28;1455;-68
2023/12/01 01:02:17;;;;;;;;;;;19.30;61.60;;;;;;5023175;28;1911;-68
2023/12/01 01:04:42;;;;;;;;;;;19.30;61.70;;;;;;5017245;28;1476;-68
2023/12/01 01:07:07;;;;;;;;;;;19.30;61.60;;;;;;5020570;28;1592;-68
2023/12/01 01:09:33;;;;;;;;;;;19.30;61.70;;;;;;5022460;28;1462;-68
2023/12/01 01:11:58;;;;;;;;;;;19.30;61.70;;;;;;5019232;28;1385;-68
2023/12/01 01:14:24;;;;;;;;;;;19.30;61.70;;;;;;5022551;28;1421;-68
2023/12/01 01:16:49;;;;;;;;;;;19.30;61.80;;;;;;5015859;28;1415;-68
2023/12/01 01:19:15;;;;;;;;;;;19.30;61.70;;;;;;5019405;28;1083;-68
2023/12/01 01:21:40;;;;;;;;;;;19.30;61.80;;;;;;5020275;28;1906;-68
2023/12/01 01:24:06;;;;;;;;;;;19.30;61.80;;;;;;5020420;28;1405;-68
2023/12/01 01:26:31;;;;;;;;;;;19.30;61.80;;;;;;5019052;28;1521;-68
2023/12/01 01:28:56;;;;;;;;;;;19.20;61.80;;;;;;5021452;28;1527;-68
2023/12/01 01:31:22;;;;;;;;;;;19.30;61.90;;;;;;5018350;28;1479;-68
2023/12/01 01:33:47;;;;;;;;;;;19.30;61.90;;;;;;5018390;28;1430;-68
2023/12/01 01:36:13;;;;;;;;;;;19.20;61.80;;;;;;5019418;28;1452;-68
2023/12/01 01:38:40;;;;;;;;;;;19.20;61.80;;;;;;5019592;28;1501;-68
2023/12/01 01:41:05;;;;;;;;;;;19.20;61.90;;;;;;5016139;28;1910;-68
2023/12/01 01:43:31;;;;;;;;;;;19.20;61.90;;;;;;5021440;28;1387;-68
2023/12/01 01:46:04;;;;;;;;;;;19.20;61.90;;;;;;5019245;28;1482;-68
2023/12/01 01:48:29;;;;;;;;;;;19.20;61.90;;;;;;5019144;28;1505;-68
2023/12/01 01:50:55;;;;;;;;;;;19.20;61.90;;;;;;5020075;28;1390;-67
2023/12/01 01:53:20;;;;;;;;;;;19.20;62.00;;;;;;5027740;28;1477;-68
2023/12/01 01:55:46;;;;;;;;;;;19.20;62.00;;;;;;5016388;28;1450;-68
2023/12/01 01:58:12;;;;;;;;;;;19.20;61.90;;;;;;5018011;28;1582;-68
2023/12/01 02:00:38;;;;;;;;;;;19.20;62.00;;;;;;5017829;28;1446;-68
2023/12/01 02:03:03;;;;;;;;;;;19.20;62.00;;;;;;5018613;28;1959;-68
2023/12/01 02:05:29;;;;;;;;;;;19.20;62.00;;;;;;5022550;28;1367;-68
2023/12/01 02:07:54;;;;;;;;;;;19.20;62.00;;;;;;5017071;28;1168;-67
2023/12/01 02:10:20;;;;;;;;;;;19.20;62.00;;;;;;5019130;28;1521;-68
2023/12/01 02:12:46;;;;;;;;;;;19.20;62.00;;;;;;5016026;28;1467;-68
2023/12/01 02:15:12;;;;;;;;;;;19.20;62.00;;;;;;5019501;28;1176;-68
2023/12/01 02:17:40;;;;;;;;;;;19.20;62.00;;;;;;5017618;28;1228;-68
2023/12/01 02:20:06;;;;;;;;;;;19.20;62.00;;;;;;5019963;28;1057;-67
2023/12/01 02:22:32;;;;;;;;;;;19.20;62.00;;;;;;5017978;28;1958;-68
2023/12/01 02:24:58;;;;;;;;;;;19.20;62.00;;;;;;5018422;28;1547;-67
2023/12/01 02:27:23;;;;;;;;;;;19.20;62.00;;;;;;5020494;28;1244;-68
2023/12/01 02:29:49;;;;;;;;;;;19.20;62.00;;;;;;5020533;28;1431;-68
2023/12/01 02:32:14;;;;;;;;;;;19.20;62.00;;;;;;5018186;28;1233;-68
2023/12/01 02:34:41;;;;;;;;;;;19.20;61.90;;;;;;5019208;28;1330;-68
2023/12/01 02:37:07;;;;;;;;;;;19.20;62.00;;;;;;5009704;28;1427;-68
2023/12/01 02:39:36;;;;;;;;;;;19.20;61.90;;;;;;5018803;28;1479;-68
2023/12/01 02:42:02;;;;;;;;;;;19.20;61.90;;;;;;5016475;28;1969;-68
2023/12/01 02:44:28;;;;;;;;;;;19.20;61.90;;;;;;5019347;28;1508;-68
2023/12/01 02:46:53;;;;;;;;;;;19.20;62.00;;;;;;5016603;28;1444;-68
2023/12/01 02:49:18;;;;;;;;;;;19.20;61.90;;;;;;5002292;28;1428;-68
2023/12/01 02:51:44;;;;;;;;;;;19.20;61.90;;;;;;5015617;28;1301;-68
2023/12/01 02:54:09;;;;;;;;;;;19.20;61.90;;;;;;5020141;28;1553;-68
2023/12/01 02:56:35;;;;;;;;;;;19.20;62.00;;;;;;5019806;28;1446;-67
2023/12/01 02:59:00;;;;;;;;;;;19.20;62.00;;;;;;5020307;28;922;-68
2023/12/01 03:01:26;;;;;;;;;;;19.20;62.00;;;;;;5019233;28;1998;-68
2023/12/01 03:03:51;;;;;;;;;;;19.20;62.00;;;;;;5017328;28;1344;-67
2023/12/01 03:06:17;;;;;;;;;;;19.20;62.00;;;;;;5017195;28;1476;-68
2023/12/01 03:08:42;;;;;;;;;;;19.20;62.00;;;;;;5003577;28;1518;-68
2023/12/01 03:11:08;;;;;;;;;;;19.20;62.80;;;;;;5017183;28;1275;-68
2023/12/01 03:13:33;;;;;;;;;;;19.20;62.00;;;;;;5018189;28;1354;-68
2023/12/01 03:15:58;;;;;;;;;;;19.20;62.10;;;;;;5017965;28;1522;-67
2023/12/01 03:18:24;;;;;;;;;;;19.20;62.10;;;;;;5015971;28;1536;-67
2023/12/01 03:20:49;;;;;;;;;;;19.20;62.10;;;;;;5015557;28;1325;-67
2023/12/01 03:23:15;;;;;;;;;;;19.20;62.10;;;;;;5015882;28;1332;-67
2023/12/01 03:25:40;;;;;;;;;;;19.10;62.00;;;;;;5017738;28;1468;-67
2023/12/01 03:28:06;;;;;;;;;;;19.20;62.10;;;;;;5016827;28;1496;-67
2023/12/01 03:30:31;;;;;;;;;;;19.20;62.10;;;;;;5016786;28;1591;-67
2023/12/01 03:32:57;;;;;;;;;;;19.10;62.00;;;;;;5018035;28;1268;-67
2023/12/01 03:35:23;;;;;;;;;;;19.20;62.10;;;;;;5015893;28;1458;-67
2023/12/01 03:37:49;;;;;;;;;;;19.20;62.10;;;;;;5018778;28;1695;-68
2023/12/01 03:40:14;;;;;;;;;;;19.20;62.10;;;;;;5024541;28;1436;-68
2023/12/01 03:42:40;;;;;;;;;;;19.20;62.00;;;;;;5014428;28;2025;-68
2023/12/01 03:45:06;;;;;;;;;;;19.20;62.10;;;;;;5017623;28;1212;-68
2023/12/01 03:47:33;;;;;;;;;;;19.20;62.10;;;;;;5026036;28;1557;-68
2023/12/01 03:49:58;;;;;;;;;;;19.10;62.00;;;;;;5015921;28;1324;-68
2023/12/01 03:52:24;;;;;;;;;;;19.10;62.00;;;;;;5015894;28;1378;-67
2023/12/01 03:54:49;;;;;;;;;;;19.20;62.00;;;;;;5017712;28;1556;-68
2023/12/01 03:57:15;;;;;;;;;;;19.20;62.10;;;;;;5019578;28;1351;-67
2023/12/01 03:59:40;;;;;;;;;;;19.10;62.00;;;;;;5023972;28;1297;-68
2023/12/01 04:02:06;;;;;;;;;;;19.10;61.90;;;;;;5015944;28;1910;-68
2023/12/01 04:04:31;;;;;;;;;;;19.20;62.00;;;;;;5015811;28;1311;-67
2023/12/01 04:06:57;;;;;;;;;;;19.10;62.00;;;;;;5018854;28;1356;-68
2023/12/01 04:09:22;;;;;;;;;;;19.10;62.00;;;;;;5014903;28;1408;-68
2023/12/01 04:11:48;;;;;;;;;;;19.10;62.00;;;;;;5017797;28;1328;-68
2023/12/01 04:14:13;;;;;;;;;;;19.10;62.00;;;;;;5019034;28;1495;-68
2023/12/01 04:16:39;;;;;;;;;;;19.10;61.90;;;;;;5016222;28;1458;-68
2023/12/01 04:19:04;;;;;;;;;;;19.10;62.00;;;;;;5016068;28;1666;-68
2023/12/01 04:21:30;;;;;;;;;;;19.10;62.00;;;;;;5018720;28;1902;-68
2023/12/01 04:23:55;;;;;;;;;;;19.10;62.00;;;;;;5016317;28;1459;-68
2023/12/01 04:26:21;;;;;;;;;;;19.10;62.00;;;;;;5017393;28;1288;-68
2023/12/01 04:28:46;;;;;;;;;;;19.10;61.90;;;;;;5017794;28;1380;-68
2023/12/01 04:31:12;;;;;;;;;;;19.10;62.00;;;;;;5016125;28;1213;-68
2023/12/01 04:33:37;;;;;;;;;;;19.10;62.00;;;;;;5016954;28;1398;-68
2023/12/01 04:36:06;;;;;;;;;;;19.10;61.90;;;;;;5018127;28;1409;-68
2023/12/01 04:38:33;;;;;;;;;;;19.10;62.00;;;;;;5014270;28;1421;-68
2023/12/01 04:40:58;;;;;;;;;;;19.10;62.00;;;;;;5016229;28;1902;-68
2023/12/01 04:43:24;;;;;;;;;;;19.20;62.80;;;;;;5017663;28;1519;-68
2023/12/01 04:45:49;;;;;;;;;;;19.10;62.00;;;;;;5019492;28;1478;-68
2023/12/01 04:48:14;;;;;;;;;;;19.10;62.00;;;;;;5014036;28;1424;-68
2023/12/01 04:50:47;;;;;;;;;;;19.10;62.00;;;;;;5021164;28;1486;-68
2023/12/01 04:53:12;;;;;;;;;;;19.10;62.00;;;;;;5013371;28;1275;-69
2023/12/01 04:55:37;;;;;;;;;;;19.10;62.00;;;;;;5016124;28;1396;-68
2023/12/01 04:58:03;;;;;;;;;;;19.10;62.00;;;;;;5017058;28;1669;-68
2023/12/01 05:00:28;;;;;;;;;;;19.10;62.00;;;;;;5016300;28;893;-68
2023/12/01 05:03:01;;;;;;;;;;;19.10;62.10;;;;;;5014990;28;1895;-68
2023/12/01 05:05:30;;;;;;;;;;;19.10;62.10;;;;;;5017723;28;1479;-68
2023/12/01 05:07:59;;;;;;;;;;;19.10;62.00;;;;;;5022657;28;1544;-68
2023/12/01 05:10:26;;;;;;;;;;;19.10;62.00;;;;;;5017231;28;1215;-68
2023/12/01 05:12:54;;;;;;;;;;;19.10;62.00;;;;;;5022385;28;1351;-68
2023/12/01 05:15:24;;;;;;;;;;;19.20;62.10;;;;;;5019271;28;1349;-68
2023/12/01 05:17:59;;;;;;;;;;;19.30;61.90;;;;;;5019442;28;1602;-68
2023/12/01 05:20:27;;;;;;;;;;;19.30;61.80;;;;;;5019921;28;1410;-68
2023/12/01 05:22:55;;;;;;;;;;;19.50;61.80;;;;;;5017794;28;1910;-68
2023/12/01 05:25:21;;;;;;;;;;;19.50;61.60;;;;;;5020591;28;1363;-68
2023/12/01 05:27:47;;;;;;;;;;;19.70;61.40;;;;;;5019848;28;1417;-68
2023/12/01 05:30:17;;;;;;;;;;;19.80;61.80;;;;;;5020855;28;993;-68
2023/12/01 05:32:42;;;;;;;;;;;19.80;60.70;;;;;;5019594;28;971;-68
2023/12/01 05:35:11;;;;;;;;;;;19.90;60.30;;;;;;5018612;28;919;-68
2023/12/01 05:37:38;;;;;;;;;;;20.00;60.00;;;;;;5019482;28;1233;-68
2023/12/01 05:40:05;;;;;;;;;;;20.10;59.70;;;;;;5021004;28;1365;-68
2023/12/01 05:42:31;;;;;;;;;;;20.20;59.50;;;;;;5018808;28;1898;-68
2023/12/01 05:44:57;;;;;;;;;;;20.20;59.30;;;;;;5023009;28;1531;-68
2023/12/01 05:47:22;;;;;;;;;;;20.30;59.30;;;;;;5019305;28;1380;-68
2023/12/01 05:49:48;;;;;;;;;;;20.30;59.10;;;;;;5020203;28;1359;-68
2023/12/01 05:52:14;;;;;;;;;;;20.30;59.10;;;;;;5018455;28;1497;-68
2023/12/01 05:54:39;;;;;;;;;;;20.40;59.00;;;;;;5019259;28;1469;-68
2023/12/01 05:57:06;;;;;;;;;;;20.40;58.90;;;;;;5017422;28;1788;-68
2023/12/01 05:59:32;;;;;;;;;;;20.40;58.80;;;;;;5019975;28;1597;-68
2023/12/01 06:01:58;;;;;;;;;;;20.40;58.80;;;;;;5019242;28;1910;-68
2023/12/01 06:04:25;;;;;;;;;;;20.40;58.80;;;;;;5020779;28;1379;-68
2023/12/01 06:06:50;;;;;;;;;;;20.40;58.70;;;;;;5017937;28;1517;-67
2023/12/01 06:09:17;;;;;;;;;;;20.50;58.70;;;;;;5019448;28;1376;-67
2023/12/01 06:11:43;;;;;;;;;;;20.40;58.60;;;;;;5020571;28;1367;-68
2023/12/01 06:14:08;;;;;;;;;;;20.50;58.70;;;;;;5036223;28;1381;-68
2023/12/01 06:16:34;;;;;;;;;;;20.40;58.60;;;;;;5020744;28;1387;-68
2023/12/01 06:18:59;;;;;;;;;;;20.40;58.60;;;;;;5016923;28;1588;-68
2023/12/01 06:21:25;;;;;;;;;;;20.40;58.60;;;;;;5019811;28;1967;-67
2023/12/01 06:23:50;;;;;;;;;;;20.40;58.60;;;;;;5015395;28;1530;-67
2023/12/01 06:26:16;;;;;;;;;;;20.40;58.60;;;;;;5021196;28;1527;-68
2023/12/01 06:28:41;;;;;;;;;;;20.40;58.60;;;;;;5018252;28;1279;-67
2023/12/01 06:31:07;;;;;;;;;;;20.40;58.60;;;;;;5018070;28;2306;-68
2023/12/01 06:33:32;;;;;;;;;;;20.40;58.70;;;;;;5018462;28;1251;-67
2023/12/01 06:35:58;;;;;;;;;;;20.40;58.60;;;;;;5019800;28;1466;-68
2023/12/01 06:38:23;;;;;;;;;;;20.40;58.70;;;;;;5016647;28;1141;-67
2023/12/01 06:40:49;;;;;;;;;;;20.40;58.70;;;;;;5023127;28;1523;-68
2023/12/01 06:43:15;;;;;;;;;;;20.40;58.70;;;;;;5021319;28;1898;-67
2023/12/01 06:45:41;;;;;;;;;;;20.40;58.70;;;;;;5018480;28;1454;-68
2023/12/01 06:48:07;;;;;;;;;;;20.30;58.70;;;;;;5013999;28;1692;-67
2023/12/01 06:50:33;;;;;;;;;;;20.30;58.80;;;;;;5016259;28;1299;-67
2023/12/01 06:53:01;;;;;;;;;;;20.30;58.80;;;;;;5026011;28;1517;-67
2023/12/01 06:55:27;;;;;;;;;;;20.30;58.80;;;;;;5018589;28;1362;-68
2023/12/01 06:57:53;;;;;;;;;;;20.30;58.80;;;;;;5014939;28;1559;-68
2023/12/01 07:00:29;;;;;;;;;;;20.30;58.90;;;;;;5015807;28;1472;-68
2023/12/01 07:02:57;;;;;;;;;;;20.30;58.90;;;;;;5017627;28;1959;-67
2023/12/01 07:05:26;;;;;;;;;;;20.30;59.00;;;;;;5015300;28;1300;-68
2023/12/01 07:07:52;;;;;;;;;;;20.20;58.90;;;;;;5018812;28;1456;-68
2023/12/01 07:10:17;;;;;;;;;;;20.20;58.90;;;;;;5018283;28;1278;-67
2023/12/01 07:12:43;;;;;;;;;;;20.20;59.00;;;;;;5017639;28;1331;-67
2023/12/01 07:15:11;;;;;;;;;;;20.20;59.00;;;;;;5015908;28;1533;-67
2023/12/01 07:17:40;;;;;;;;;;;20.20;59.60;;;;;;5016124;28;1556;-68
2023/12/01 07:20:13;;;;;;;;;;;20.20;59.10;;;;;;5009808;28;1630;-67
2023/12/01 07:22:45;;;;;;;;;;;20.20;59.10;;;;;;5014429;28;1891;-67
2023/12/01 07:25:10;;;;;;;;;;;20.10;59.10;;;;;;5016759;28;1114;-68
2023/12/01 07:27:36;;;;;;;;;;;20.10;58.60;;;;;;5015718;28;1292;-67
2023/12/01 07:30:02;;;;;;;;;;;20.10;53.10;;;;;;5021257;28;1525;-67
2023/12/01 07:32:27;;;;;;;;;;;20.10;54.30;;;;;;5017596;28;1238;-67
2023/12/01 07:34:53;;;;;;;;;;;20.10;54.50;;;;;;5018918;28;1352;-67
2023/12/01 07:37:19;;;;;;;;;;;20.20;54.80;;;;;;5017619;28;2138;-68
2023/12/01 07:39:44;;;;;;;;;;;20.20;55.20;;;;;;5010046;28;1592;-66
2023/12/01 07:42:10;;;;;;;;;;;20.30;55.40;;;;;;5018323;28;1963;-66
2023/12/01 07:44:35;;;;;;;;;;;20.40;55.50;;;;;;5015674;28;1463;-66
2023/12/01 07:47:04;;;;;;;;;;;20.50;55.70;;;;;;5014796;28;1347;-65
2023/12/01 07:49:30;;;;;;;;;;;20.60;55.70;;;;;;5014052;28;1365;-71
2023/12/01 07:51:56;;;;;;;;;;;20.60;55.70;;;;;;5018664;28;1344;-67
2023/12/01 07:54:22;;;;;;;;;;;20.70;55.70;;;;;;5018006;28;1162;-67
2023/12/01 07:56:47;;;;;;;;;;;20.80;55.70;;;;;;5015830;28;1404;-69
2023/12/01 07:59:13;;;;;;;;;;;20.90;55.80;;;;;;5017580;28;1473;-69
2023/12/01 08:01:38;;;;;;;;;;;20.90;55.70;;;;;;5016848;28;1891;-69
2023/12/01 08:04:04;;;;;;;;;;;21.00;56.30;;;;;;5019983;28;1264;-69
2023/12/01 08:06:29;;;;;;;;;;;21.10;55.70;;;;;;5000965;28;1422;-69
2023/12/01 08:08:55;;;;;;;;;;;21.10;55.70;;;;;;5016680;28;1452;-69
2023/12/01 08:11:20;;;;;;;;;;;21.20;55.70;;;;;;5016940;28;1385;-70
2023/12/01 08:13:47;;;;;;;;;;;21.20;55.70;;;;;;5017079;28;1267;-69
2023/12/01 08:16:12;;;;;;;;;;;21.20;55.80;;;;;;5019662;28;1428;-69
2023/12/01 08:18:38;;;;;;;;;;;21.20;55.80;;;;;;5015354;28;1544;-70
2023/12/01 08:21:03;;;;;;;;;;;21.30;55.90;;;;;;5015137;28;1910;-70
2023/12/01 08:23:29;;;;;;;;;;;21.30;55.90;;;;;;5017020;28;1378;-70
2023/12/01 08:25:54;;;;;;;;;;;21.20;56.10;;;;;;5018300;28;1437;-70
2023/12/01 08:28:20;;;;;;;;;;;21.30;56.40;;;;;;5014827;28;1969;-70
2023/12/01 08:30:45;;;;;;;;;;;21.20;56.50;;;;;;5017876;28;1406;-70
2023/12/01 08:33:11;;;;;;;;;;;21.30;56.70;;;;;;5017787;28;970;-70
2023/12/01 08:35:36;;;;;;;;;;;21.20;56.80;;;;;;5016593;28;1398;-70
2023/12/01 08:38:02;;;;;;;;;;;21.30;56.90;;;;;;5015237;28;1487;-70
2023/12/01 08:40:28;;;;;;;;;;;21.30;57.10;;;;;;5017213;28;1496;-69
2023/12/01 08:42:53;;;;;;;;;;;21.30;57.20;;;;;;5017169;28;1910;-69
2023/12/01 08:45:19;;;;;;;;;;;21.30;57.20;;;;;;5018860;28;1544;-69
2023/12/01 08:47:45;;;;;;;;;;;21.30;57.30;;;;;;5018859;28;1513;-69
2023/12/01 08:50:11;;;;;;;;;;;21.30;57.40;;;;;;5022176;28;1487;-68
2023/12/01 08:52:37;;;;;;;;;;;21.30;57.50;;;;;;5020472;28;1469;-69
2023/12/01 08:55:02;;;;;;;;;;;21.30;57.50;;;;;;5018662;28;1515;-69
2023/12/01 08:57:28;;;;;;;;;;;21.20;57.50;;;;;;5019662;28;1640;-69
2023/12/01 08:59:53;;;;;;;;;;;21.30;57.70;;;;;;5017946;28;1466;-69
2023/12/01 09:02:19;;;;;;;;;;;21.30;57.70;;;;;;5018892;28;1969;-69
2023/12/01 09:04:45;;;;;;;;;;;21.30;57.80;;;;;;5021444;28;1457;-70
2023/12/01 09:07:10;;;;;;;;;;;21.30;58.00;;;;;;5020945;28;1635;-70
2023/12/01 09:09:36;;;;;;;;;;;21.30;58.10;;;;;;5020240;28;1470;-69
2023/12/01 09:12:01;;;;;;;;;;;21.30;58.10;;;;;;5018767;28;1523;-69
2023/12/01 09:14:27;;;;;;;;;;;21.20;58.30;;;;;;5018737;28;1373;-70
2023/12/01 09:16:53;;;;;;;;;;;21.20;58.30;;;;;;5020547;28;1378;-70
2023/12/01 09:19:18;;;;;;;;;;;21.20;58.40;;;;;;5019951;28;1392;-70
2023/12/01 09:21:43;;;;;;;;;;;21.20;58.40;;;;;;5020491;28;1906;-70
2023/12/01 09:24:09;;;;;;;;;;;21.20;58.60;;;;;;5018685;28;1571;-70
2023/12/01 09:26:34;;;;;;;;;;;21.20;58.60;;;;;;5020395;28;1482;-70
2023/12/01 09:29:00;;;;;;;;;;;21.20;58.70;;;;;;5017932;28;1596;-70
2023/12/01 09:31:26;;;;;;;;;;;21.20;58.80;;;;;;5026749;28;1483;-70
2023/12/01 09:33:51;;;;;;;;;;;21.20;58.90;;;;;;5019392;28;1403;-70
2023/12/01 09:36:17;;;;;;;;;;;21.20;58.90;;;;;;5017830;28;1462;-70
2023/12/01 09:38:43;;;;;;;;;;;21.20;58.90;;;;;;5016191;28;1486;-70
2023/12/01 09:41:09;;;;;;;;;;;21.10;59.10;;;;;;5015961;28;1993;-70
2023/12/01 09:43:35;;;;;;;;;;;21.10;59.10;;;;;;5017767;28;1467;-70
2023/12/01 09:46:01;;;;;;;;;;;21.10;59.20;;;;;;5019659;28;1305;-70
2023/12/01 09:48:26;;;;;;;;;;;21.10;59.50;;;;;;5017634;28;1268;-70
2023/12/01 09:50:52;;;;;;;;;;;21.10;59.50;;;;;;5017759;28;1456;-70
2023/12/01 09:53:17;;;;;;;;;;;21.10;59.50;;;;;;5017692;28;1477;-70
2023/12/01 09:55:43;;;;;;;;;;;21.10;59.70;;;;;;5017987;28;1329;-70
2023/12/01 09:58:09;;;;;;;;;;;21.10;59.70;;;;;;5016755;28;1650;-70
2023/12/01 10:00:35;;;;;;;;;;;21.00;59.70;;;;;;5017617;28;1565;-70
2023/12/01 10:03:01;;;;;;;;;;;21.00;59.60;;;;;;5017984;28;1983;-70
2023/12/01 10:05:29;;;;;;;;;;;21.10;59.60;;;;;;5018847;28;1478;-70
2023/12/01 10:07:54;;;;;;;;;;;21.10;59.80;;;;;;5020104;28;1504;-69
2023/12/01 10:10:20;;;;;;;;;;;21.10;59.70;;;;;;5017365;28;1457;-70
2023/12/01 10:12:58;;;;;;;;;;;21.20;59.60;;;;;;5017679;28;975;-70
2023/12/01 10:15:24;;;;;;;;;;;21.20;59.50;;;;;;5018295;28;1418;-70
2023/12/01 10:17:54;;;;;;;;;;;21.30;59.40;;;;;;5019221;28;1359;-70
2023/12/01 10:20:21;;;;;;;;;;;21.30;59.20;;;;;;5019658;28;1246;-69
2023/12/01 10:22:49;;;;;;;;;;;21.40;59.10;;;;;;5016686;28;1906;-69
2023/12/01 10:25:15;;;;;;;;;;;21.50;59.10;;;;;;5015111;28;1375;-69
2023/12/01 10:27:40;;;;;;;;;;;21.60;59.00;;;;;;5019294;28;1283;-69
2023/12/01 10:30:12;;;;;;;;;;;21.60;58.90;;;;;;5016174;28;1819;-69
2023/12/01 10:32:38;;;;;;;;;;;21.60;58.80;;;;;;5019825;28;1263;-69
2023/12/01 10:35:05;;;;;;;;;;;21.70;58.80;;;;;;5050113;28;1514;-69
2023/12/01 10:37:30;;;;;;;;;;;21.70;58.70;;;;;;5017276;28;1458;-69
2023/12/01 10:39:56;;;;;;;;;;;21.70;58.90;;;;;;5016420;28;2024;-70
2023/12/01 10:42:23;;;;;;;;;;;21.70;58.90;;;;;;5016433;28;1973;-70
2023/12/01 10:44:49;;;;;;;;;;;21.80;58.80;;;;;;5025709;28;1324;-69
2023/12/01 10:47:14;;;;;;;;;;;21.80;58.80;;;;;;5017497;28;1430;-69
2023/12/01 10:49:40;;;;;;;;;;;21.80;58.90;;;;;;5016393;28;1583;-70
2023/12/01 10:52:05;;;;;;;;;;;21.80;58.90;;;;;;5010020;28;1491;-69
2023/12/01 10:54:30;;;;;;;;;;;21.80;58.90;;;;;;5026258;28;2081;-70
2023/12/01 10:56:56;;;;;;;;;;;21.80;58.90;;;;;;5018016;28;1379;-69
2023/12/01 10:59:23;;;;;;;;;;;21.80;58.90;;;;;;5017729;28;1401;-69
2023/12/01 11:01:49;;;;;;;;;;;21.80;59.00;;;;;;5018696;28;1914;-69
2023/12/01 11:04:18;;;;;;;;;;;21.80;59.00;;;;;;5016461;28;855;-69
2023/12/01 11:06:51;;;;;;;;;;;21.80;59.10;;;;;;5023916;28;2173;-69
2023/12/01 11:09:19;;;;;;;;;;;21.70;59.10;;;;;;5015729;28;1446;-69
2023/12/01 11:11:52;;;;;;;;;;;21.70;59.10;;;;;;5017471;28;1426;-70
2023/12/01 11:14:21;;;;;;;;;;;21.70;59.10;;;;;;5016798;28;1408;-68
2023/12/01 11:16:47;;;;;;;;;;;21.70;59.20;;;;;;5018675;28;1442;-68
2023/12/01 11:19:13;;;;;;;;;;;21.70;59.40;;;;;;5016871;28;1286;-68
2023/12/01 11:21:42;;;;;;;;;;;21.70;59.40;;;;;;5018154;28;1969;-68
2023/12/01 11:24:24;;;;;;;;;;;21.70;59.40;;;;;;5017627;28;1699;-68
2023/12/01 11:26:51;;;;;;;;;;;21.60;59.50;;;;;;5016655;28;1395;-68
2023/12/01 11:29:33;;;;;;;;;;;21.60;59.60;;;;;;5017596;28;1279;-68
2023/12/01 11:31:59;;;;;;;;;;;21.60;59.60;;;;;;5014928;28;908;-68
2023/12/01 11:34:25;;;;;;;;;;;21.60;59.80;;;;;;5015202;28;1052;-68
2023/12/01 11:36:52;;;;;;;;;;;21.50;59.80;;;;;;5017711;28;1288;-68
2023/12/01 11:39:27;;;;;;;;;;;21.60;60.70;;;;;;5017829;28;1251;-68
2023/12/01 11:41:58;;;;;;;;;;;21.50;60.40;;;;;;5019590;28;1906;-69
2023/12/01 11:44:25;;;;;;;;;;;21.50;60.50;;;;;;5020590;28;1262;-69
2023/12/01 11:46:55;;;;;;;;;;;21.50;60.70;;;;;;5014436;28;1463;-69
2023/12/01 11:49:24;;;;;;;;;;;21.50;61.10;;;;;;5020706;28;1522;-68
2023/12/01 11:51:50;;;;;;;;;;;21.50;61.10;;;;;;5019346;28;1786;-68
2023/12/01 11:54:15;;;;;;;;;;;21.50;61.70;;;;;;5016776;28;1390;-68
2023/12/01 11:56:45;;;;;;;;;;;21.50;61.00;;;;;;5019838;28;1396;-68
2023/12/01 11:59:10;;;;;;;;;;;21.40;61.10;;;;;;5018483;28;2060;-69
2023/12/01 12:01:37;;;;;;;;;;;21.40;61.20;;;;;;5018532;28;1914;-68
2023/12/01 12:04:04;;;;;;;;;;;21.40;61.30;;;;;;5017356;28;1407;-69
2023/12/01 12:06:32;;;;;;;;;;;21.40;61.30;;;;;;5016651;28;1435;-68
2023/12/01 12:08:58;;;;;;;;;;;21.40;61.40;;;;;;5018989;28;1554;-69
2023/12/01 12:11:24;;;;;;;;;;;21.40;61.30;;;;;;5017423;28;1481;-68
2023/12/01 12:13:53;;;;;;;;;;;21.40;61.20;;;;;;5020531;28;1399;-69
2023/12/01 12:16:18;;;;;;;;;;;21.40;61.30;;;;;;5016165;28;1417;-69
2023/12/01 12:18:43;;;;;;;;;;;21.40;61.20;;;;;;5014844;28;1525;-69
2023/12/01 12:21:09;;;;;;;;;;;21.40;61.50;;;;;;5020599;28;1304;-69
2023/12/01 12:23:34;;;;;;;;;;;21.40;61.40;;;;;;5017738;28;1899;-69
2023/12/01 12:26:13;;;;;;;;;;;21.40;61.40;;;;;;5020851;28;1362;-70
2023/12/01 12:28:39;;;;;;;;;;;21.40;61.30;;;;;;5018913;28;1329;-69
2023/12/01 12:31:05;;;;;;;;;;;21.40;61.30;;;;;;5017060;28;1472;-69
2023/12/01 12:33:30;;;;;;;;;;;21.40;61.30;;;;;;5020202;28;1689;-69
2023/12/01 12:35:56;;;;;;;;;;;21.30;61.50;;;;;;5016841;28;1558;-68
2023/12/01 12:38:21;;;;;;;;;;;21.30;61.50;;;;;;5018608;28;1311;-68
2023/12/01 12:40:47;;;;;;;;;;;21.40;61.60;;;;;;5023354;28;1589;-68
2023/12/01 12:43:12;;;;;;;;;;;21.30;61.50;;;;;;5019084;28;1898;-68
2023/12/01 12:45:38;;;;;;;;;;;21.30;61.50;;;;;;5020026;28;1588;-68
2023/12/01 12:48:07;;;;;;;;;;;21.30;61.40;;;;;;5017970;28;1159;-69
2023/12/01 12:50:37;;;;;;;;;;;21.30;61.50;;;;;;5022450;28;1419;-69
2023/12/01 12:53:03;;;;;;;;;;;21.30;61.50;;;;;;5024885;28;1368;-69
2023/12/01 12:55:29;;;;;;;;;;;21.30;61.50;;;;;;5019734;28;1375;-68
2023/12/01 12:57:54;;;;;;;;;;;21.30;61.60;;;;;;5019021;28;1623;-68
2023/12/01 13:00:19;;;;;;;;;;;21.30;61.70;;;;;;5015595;28;1926;-68
2023/12/01 13:02:45;;;;;;;;;;;21.30;61.80;;;;;;5016457;28;1994;-69
2023/12/01 13:05:10;;;;;;;;;;;21.20;61.10;;;;;;5019026;28;1419;-69
2023/12/01 13:07:36;;;;;;;;;;;21.20;55.30;;;;;;5028034;28;1474;-69
2023/12/01 13:10:02;;;;;;;;;;;21.10;52.20;;;;;;5019578;28;1332;-69
2023/12/01 13:12:27;;;;;;;;;;;21.10;51.40;;;;;;5021042;28;1256;-69
2023/12/01 13:14:52;;;;;;;;;;;21.00;50.10;;;;;;5019984;28;1350;-69
2023/12/01 13:17:18;;;;;;;;;;;20.90;49.70;;;;;;5019786;28;1496;-69
2023/12/01 13:19:43;;;;;;;;;;;20.80;49.30;;;;;;5018904;28;1287;-69
2023/12/01 13:22:09;;;;;;;;;;;20.80;49.20;;;;;;5021344;28;1902;-69
2023/12/01 13:24:34;;;;;;;;;;;20.70;48.50;;;;;;5020013;28;1474;-69
2023/12/01 13:27:00;;;;;;;;;;;20.70;49.90;;;;;;5018982;28;1416;-68
2023/12/01 13:29:26;;;;;;;;;;;20.70;50.40;;;;;;5016562;28;1458;-68
2023/12/01 13:31:52;;;;;;;;;;;20.70;51.30;;;;;;5019476;28;1499;-69
2023/12/01 13:34:17;;;;;;;;;;;20.70;51.90;;;;;;5020026;28;1357;-68
2023/12/01 13:36:44;;;;;;;;;;;20.70;52.60;;;;;;5009936;28;1282;-68
2023/12/01 13:39:10;;;;;;;;;;;20.60;53.00;;;;;;5018955;28;1530;-68
2023/12/01 13:41:35;;;;;;;;;;;20.70;53.50;;;;;;5020798;28;1954;-69
2023/12/01 13:44:01;;;;;;;;;;;20.70;53.80;;;;;;5017427;28;1954;-69
2023/12/01 13:46:26;;;;;;;;;;;20.70;54.10;;;;;;5017865;28;2202;-68
2023/12/01 13:48:52;;;;;;;;;;;20.70;54.40;;;;;;5018940;28;1404;-68
2023/12/01 13:51:17;;;;;;;;;;;20.70;54.50;;;;;;5020016;28;1434;-68
2023/12/01 13:53:43;;;;;;;;;;;20.70;54.80;;;;;;5024175;28;1344;-68
2023/12/01 13:56:09;;;;;;;;;;;20.60;54.90;;;;;;5021874;28;1553;-69
2023/12/01 13:58:34;;;;;;;;;;;20.70;55.20;;;;;;5019842;28;1540;-68
2023/12/01 14:00:59;;;;;;;;;;;20.70;55.30;;;;;;5021149;28;1492;-69
2023/12/01 14:03:25;;;;;;;;;;;20.60;55.40;;;;;;5023412;28;1918;-68
2023/12/01 14:05:51;;;;;;;;;;;20.60;55.60;;;;;;5023176;28;1423;-68
2023/12/01 14:08:16;;;;;;;;;;;20.60;55.70;;;;;;5018421;28;1435;-69
2023/12/01 14:10:42;;;;;;;;;;;20.60;55.80;;;;;;5019334;28;1568;-68
2023/12/01 14:13:07;;;;;;;;;;;20.60;55.90;;;;;;5019289;28;1322;-67
2023/12/01 14:15:33;;;;;;;;;;;20.60;56.10;;;;;;5021910;28;1799;-68
2023/12/01 14:17:58;;;;;;;;;;;20.50;56.10;;;;;;5021157;28;1520;-68
2023/12/01 14:20:24;;;;;;;;;;;20.60;56.30;;;;;;5021513;28;1342;-68
2023/12/01 14:22:49;;;;;;;;;;;20.50;56.30;;;;;;5019175;28;1902;-69
2023/12/01 14:25:15;;;;;;;;;;;20.50;56.40;;;;;;5020534;28;1165;-69